sensor_id;sensor_type;location;lat;lon;timestamp;P1;durP1;ratioP1;P2;durP2;ratioP2
52668;SDS011;59898;52.786;6.892;2022-07-04T00:02:53;5.68;;;4.78;;
52668;SDS011;59898;52.786;6.892;2022-07-04T00:06:14;5.72;;;4.93;;
52668;SDS011;59898;52.786;6.892;2022-07-04T00:09:34;8.77;;;5.63;;
52668;SDS011;59898;52.786;6.892;2022-07-04T00:12:55;6.70;;;5.15;;
52668;SDS011;59898;52.786;6.892;2022-07-04T00:16:16;11.10;;;4.63;;
52668;SDS011;59898;52.786;6.892;2022-07-04T00:19:37;9.10;;;5.68;;
52668;SDS011;59898;52.786;6.892;2022-07-04T00:22:58;9.80;;;6.00;;
52668;SDS011;59898;52.786;6.892;2022-07-04T00:26:19;8.05;;;5.35;;
52668;SDS011;59898;52.786;6.892;2022-07-04T00:29:39;7.53;;;5.47;;
52668;SDS011;59898;52.786;6.892;2022-07-04T00:33:00;6.57;;;5.53;;
52668;SDS011;59898;52.786;6.892;2022-07-04T00:36:21;6.38;;;5.45;;
52668;SDS011;59898;52.786;6.892;2022-07-04T00:39:41;9.15;;;6.07;;
52668;SDS011;59898;52.786;6.892;2022-07-04T00:43:03;8.93;;;5.55;;
52668;SDS011;59898;52.786;6.892;2022-07-04T00:46:24;6.57;;;5.82;;
52668;SDS011;59898;52.786;6.892;2022-07-04T00:49:45;9.75;;;5.97;;
52668;SDS011;59898;52.786;6.892;2022-07-04T00:53:05;7.80;;;6.47;;
52668;SDS011;59898;52.786;6.892;2022-07-04T00:56:26;8.57;;;6.43;;
52668;SDS011;59898;52.786;6.892;2022-07-04T00:59:47;6.53;;;5.60;;
52668;SDS011;59898;52.786;6.892;2022-07-04T01:03:08;10.75;;;6.72;;
52668;SDS011;59898;52.786;6.892;2022-07-04T01:06:29;9.95;;;7.00;;
52668;SDS011;59898;52.786;6.892;2022-07-04T01:09:50;8.70;;;6.60;;
52668;SDS011;59898;52.786;6.892;2022-07-04T01:13:21;9.52;;;7.07;;
52668;SDS011;59898;52.786;6.892;2022-07-04T01:16:43;8.85;;;7.13;;
52668;SDS011;59898;52.786;6.892;2022-07-04T01:20:04;9.52;;;7.20;;
52668;SDS011;59898;52.786;6.892;2022-07-04T01:23:25;8.32;;;6.43;;
52668;SDS011;59898;52.786;6.892;2022-07-04T01:26:46;8.57;;;7.05;;
52668;SDS011;59898;52.786;6.892;2022-07-04T01:30:07;7.95;;;7.15;;
52668;SDS011;59898;52.786;6.892;2022-07-04T01:33:28;10.43;;;7.53;;
52668;SDS011;59898;52.786;6.892;2022-07-04T01:36:49;8.95;;;7.28;;
52668;SDS011;59898;52.786;6.892;2022-07-04T01:40:10;8.93;;;7.53;;
52668;SDS011;59898;52.786;6.892;2022-07-04T01:43:32;10.75;;;7.82;;
52668;SDS011;59898;52.786;6.892;2022-07-04T01:46:54;9.35;;;8.45;;
52668;SDS011;59898;52.786;6.892;2022-07-04T01:50:15;9.30;;;8.05;;
52668;SDS011;59898;52.786;6.892;2022-07-04T01:53:36;4.60;;;3.53;;
52668;SDS011;59898;52.786;6.892;2022-07-04T01:56:57;5.15;;;4.00;;
52668;SDS011;59898;52.786;6.892;2022-07-04T02:00:18;7.38;;;6.45;;
52668;SDS011;59898;52.786;6.892;2022-07-04T02:03:58;7.30;;;4.38;;
52668;SDS011;59898;52.786;6.892;2022-07-04T02:07:20;5.03;;;3.60;;
52668;SDS011;59898;52.786;6.892;2022-07-04T02:10:40;4.60;;;4.20;;
52668;SDS011;59898;52.786;6.892;2022-07-04T02:14:01;6.30;;;3.38;;
52668;SDS011;59898;52.786;6.892;2022-07-04T02:17:21;9.38;;;4.78;;
52668;SDS011;59898;52.786;6.892;2022-07-04T02:20:42;8.60;;;6.57;;
52668;SDS011;59898;52.786;6.892;2022-07-04T02:24:03;8.15;;;6.75;;
52668;SDS011;59898;52.786;6.892;2022-07-04T02:27:24;7.07;;;5.68;;
52668;SDS011;59898;52.786;6.892;2022-07-04T02:30:45;5.97;;;4.85;;
52668;SDS011;59898;52.786;6.892;2022-07-04T02:34:05;6.55;;;5.10;;
52668;SDS011;59898;52.786;6.892;2022-07-04T02:37:26;4.78;;;4.03;;
52668;SDS011;59898;52.786;6.892;2022-07-04T02:40:47;7.28;;;6.03;;
52668;SDS011;59898;52.786;6.892;2022-07-04T02:44:08;4.28;;;3.67;;
52668;SDS011;59898;52.786;6.892;2022-07-04T02:47:30;4.57;;;4.00;;
52668;SDS011;59898;52.786;6.892;2022-07-04T02:50:50;7.93;;;5.38;;
52668;SDS011;59898;52.786;6.892;2022-07-04T02:54:11;5.32;;;3.85;;
52668;SDS011;59898;52.786;6.892;2022-07-04T02:57:32;11.90;;;6.90;;
52668;SDS011;59898;52.786;6.892;2022-07-04T03:00:52;9.27;;;7.07;;
52668;SDS011;59898;52.786;6.892;2022-07-04T03:04:13;10.40;;;7.93;;
52668;SDS011;59898;52.786;6.892;2022-07-04T03:07:34;13.27;;;9.05;;
52668;SDS011;59898;52.786;6.892;2022-07-04T03:10:54;10.80;;;8.15;;
52668;SDS011;59898;52.786;6.892;2022-07-04T03:14:15;10.40;;;9.30;;
52668;SDS011;59898;52.786;6.892;2022-07-04T03:17:36;10.10;;;8.68;;
52668;SDS011;59898;52.786;6.892;2022-07-04T03:20:57;13.85;;;8.65;;
52668;SDS011;59898;52.786;6.892;2022-07-04T03:24:17;10.38;;;9.38;;
52668;SDS011;59898;52.786;6.892;2022-07-04T03:27:38;16.00;;;10.77;;
52668;SDS011;59898;52.786;6.892;2022-07-04T03:30:59;10.07;;;9.13;;
52668;SDS011;59898;52.786;6.892;2022-07-04T03:34:20;10.43;;;8.68;;
52668;SDS011;59898;52.786;6.892;2022-07-04T03:37:40;9.82;;;8.82;;
52668;SDS011;59898;52.786;6.892;2022-07-04T03:41:01;9.85;;;8.48;;
52668;SDS011;59898;52.786;6.892;2022-07-04T03:44:22;13.35;;;9.98;;
52668;SDS011;59898;52.786;6.892;2022-07-04T03:47:43;20.60;;;10.02;;
52668;SDS011;59898;52.786;6.892;2022-07-04T03:51:03;11.27;;;9.27;;
52668;SDS011;59898;52.786;6.892;2022-07-04T03:54:24;11.30;;;9.75;;
52668;SDS011;59898;52.786;6.892;2022-07-04T03:57:48;15.07;;;9.90;;
52668;SDS011;59898;52.786;6.892;2022-07-04T04:01:09;11.27;;;10.13;;
52668;SDS011;59898;52.786;6.892;2022-07-04T04:04:29;12.68;;;10.05;;
52668;SDS011;59898;52.786;6.892;2022-07-04T04:08:09;11.80;;;10.48;;
52668;SDS011;59898;52.786;6.892;2022-07-04T04:11:29;17.08;;;10.95;;
52668;SDS011;59898;52.786;6.892;2022-07-04T04:14:51;12.57;;;11.02;;
52668;SDS011;59898;52.786;6.892;2022-07-04T04:18:12;16.50;;;11.63;;
52668;SDS011;59898;52.786;6.892;2022-07-04T04:21:32;11.77;;;10.57;;
52668;SDS011;59898;52.786;6.892;2022-07-04T04:24:53;13.60;;;10.73;;
52668;SDS011;59898;52.786;6.892;2022-07-04T04:28:13;15.25;;;11.07;;
52668;SDS011;59898;52.786;6.892;2022-07-04T04:31:34;12.77;;;11.48;;
52668;SDS011;59898;52.786;6.892;2022-07-04T04:34:56;14.55;;;11.57;;
52668;SDS011;59898;52.786;6.892;2022-07-04T04:38:17;12.50;;;9.88;;
52668;SDS011;59898;52.786;6.892;2022-07-04T04:41:38;10.45;;;9.48;;
52668;SDS011;59898;52.786;6.892;2022-07-04T04:44:59;15.23;;;10.35;;
52668;SDS011;59898;52.786;6.892;2022-07-04T04:48:19;13.65;;;10.52;;
52668;SDS011;59898;52.786;6.892;2022-07-04T04:51:40;10.70;;;9.45;;
52668;SDS011;59898;52.786;6.892;2022-07-04T04:55:01;15.30;;;9.45;;
52668;SDS011;59898;52.786;6.892;2022-07-04T04:58:22;14.65;;;9.95;;
52668;SDS011;59898;52.786;6.892;2022-07-04T05:01:43;11.55;;;10.05;;
52668;SDS011;59898;52.786;6.892;2022-07-04T05:05:04;10.90;;;8.85;;
52668;SDS011;59898;52.786;6.892;2022-07-04T05:08:24;10.10;;;9.10;;
52668;SDS011;59898;52.786;6.892;2022-07-04T05:11:46;12.35;;;8.57;;
52668;SDS011;59898;52.786;6.892;2022-07-04T05:15:07;12.50;;;8.80;;
52668;SDS011;59898;52.786;6.892;2022-07-04T05:18:29;12.77;;;8.32;;
52668;SDS011;59898;52.786;6.892;2022-07-04T05:21:49;10.27;;;7.60;;
52668;SDS011;59898;52.786;6.892;2022-07-04T05:25:10;12.63;;;8.35;;
52668;SDS011;59898;52.786;6.892;2022-07-04T05:28:31;11.23;;;8.05;;
52668;SDS011;59898;52.786;6.892;2022-07-04T05:31:51;15.57;;;8.55;;
52668;SDS011;59898;52.786;6.892;2022-07-04T05:35:12;11.30;;;8.43;;
52668;SDS011;59898;52.786;6.892;2022-07-04T05:38:33;14.98;;;9.38;;
52668;SDS011;59898;52.786;6.892;2022-07-04T05:41:54;10.75;;;8.35;;
52668;SDS011;59898;52.786;6.892;2022-07-04T05:45:15;12.38;;;9.40;;
52668;SDS011;59898;52.786;6.892;2022-07-04T05:48:36;13.63;;;8.48;;
52668;SDS011;59898;52.786;6.892;2022-07-04T05:51:56;10.80;;;7.72;;
52668;SDS011;59898;52.786;6.892;2022-07-04T05:55:17;12.63;;;8.10;;
52668;SDS011;59898;52.786;6.892;2022-07-04T05:58:38;10.60;;;6.90;;
52668;SDS011;59898;52.786;6.892;2022-07-04T06:01:59;15.07;;;7.93;;
52668;SDS011;59898;52.786;6.892;2022-07-04T06:05:20;15.70;;;7.72;;
52668;SDS011;59898;52.786;6.892;2022-07-04T06:08:40;10.02;;;7.43;;
52668;SDS011;59898;52.786;6.892;2022-07-04T06:12:02;13.13;;;7.30;;
52668;SDS011;59898;52.786;6.892;2022-07-04T06:15:23;9.38;;;7.72;;
52668;SDS011;59898;52.786;6.892;2022-07-04T06:18:44;14.98;;;8.02;;
52668;SDS011;59898;52.786;6.892;2022-07-04T06:22:05;13.55;;;8.70;;
52668;SDS011;59898;52.786;6.892;2022-07-04T06:25:26;8.82;;;7.70;;
52668;SDS011;59898;52.786;6.892;2022-07-04T06:28:46;11.85;;;8.32;;
52668;SDS011;59898;52.786;6.892;2022-07-04T06:32:07;12.60;;;7.90;;
52668;SDS011;59898;52.786;6.892;2022-07-04T06:35:28;10.80;;;8.10;;
52668;SDS011;59898;52.786;6.892;2022-07-04T06:39:05;11.10;;;8.55;;
52668;SDS011;59898;52.786;6.892;2022-07-04T06:42:25;15.90;;;8.70;;
52668;SDS011;59898;52.786;6.892;2022-07-04T06:45:46;9.90;;;7.15;;
52668;SDS011;59898;52.786;6.892;2022-07-04T06:49:07;9.40;;;6.75;;
52668;SDS011;59898;52.786;6.892;2022-07-04T06:52:27;11.82;;;6.82;;
52668;SDS011;59898;52.786;6.892;2022-07-04T06:55:48;9.60;;;5.50;;
52668;SDS011;59898;52.786;6.892;2022-07-04T06:59:09;9.60;;;5.68;;
52668;SDS011;59898;52.786;6.892;2022-07-04T07:02:30;8.18;;;5.88;;
52668;SDS011;59898;52.786;6.892;2022-07-04T07:05:50;7.75;;;5.15;;
52668;SDS011;59898;52.786;6.892;2022-07-04T07:09:11;10.93;;;6.15;;
52668;SDS011;59898;52.786;6.892;2022-07-04T07:12:32;7.03;;;5.78;;
52668;SDS011;59898;52.786;6.892;2022-07-04T07:15:54;8.25;;;6.20;;
52668;SDS011;59898;52.786;6.892;2022-07-04T07:19:15;7.45;;;6.10;;
52668;SDS011;59898;52.786;6.892;2022-07-04T07:22:36;10.60;;;6.47;;
52668;SDS011;59898;52.786;6.892;2022-07-04T07:25:56;8.48;;;5.45;;
52668;SDS011;59898;52.786;6.892;2022-07-04T07:29:17;8.75;;;5.22;;
52668;SDS011;59898;52.786;6.892;2022-07-04T07:32:38;6.32;;;4.35;;
52668;SDS011;59898;52.786;6.892;2022-07-04T07:35:59;8.05;;;4.70;;
52668;SDS011;59898;52.786;6.892;2022-07-04T07:39:20;8.27;;;4.57;;
52668;SDS011;59898;52.786;6.892;2022-07-04T07:42:41;10.63;;;5.47;;
52668;SDS011;59898;52.786;6.892;2022-07-04T07:46:03;7.82;;;5.07;;
52668;SDS011;59898;52.786;6.892;2022-07-04T07:49:25;9.25;;;5.70;;
52668;SDS011;59898;52.786;6.892;2022-07-04T07:52:45;9.05;;;5.35;;
52668;SDS011;59898;52.786;6.892;2022-07-04T07:56:06;11.40;;;5.80;;
52668;SDS011;59898;52.786;6.892;2022-07-04T07:59:27;13.75;;;5.85;;
52668;SDS011;59898;52.786;6.892;2022-07-04T08:02:48;8.55;;;5.25;;
52668;SDS011;59898;52.786;6.892;2022-07-04T08:06:27;8.98;;;4.40;;
52668;SDS011;59898;52.786;6.892;2022-07-04T08:09:48;14.60;;;6.47;;
52668;SDS011;59898;52.786;6.892;2022-07-04T08:13:09;11.93;;;4.45;;
52668;SDS011;59898;52.786;6.892;2022-07-04T08:16:30;12.85;;;4.70;;
52668;SDS011;59898;52.786;6.892;2022-07-04T08:19:50;14.80;;;5.95;;
52668;SDS011;59898;52.786;6.892;2022-07-04T08:23:11;8.48;;;4.15;;
52668;SDS011;59898;52.786;6.892;2022-07-04T08:26:32;9.38;;;4.10;;
52668;SDS011;59898;52.786;6.892;2022-07-04T08:29:53;9.32;;;4.75;;
52668;SDS011;59898;52.786;6.892;2022-07-04T08:33:13;13.85;;;4.72;;
52668;SDS011;59898;52.786;6.892;2022-07-04T08:36:34;9.88;;;4.57;;
52668;SDS011;59898;52.786;6.892;2022-07-04T08:39:55;6.30;;;3.70;;
52668;SDS011;59898;52.786;6.892;2022-07-04T08:43:15;8.10;;;4.70;;
52668;SDS011;59898;52.786;6.892;2022-07-04T08:46:38;8.52;;;4.38;;
52668;SDS011;59898;52.786;6.892;2022-07-04T08:53:31;10.15;;;3.92;;
52668;SDS011;59898;52.786;6.892;2022-07-04T08:56:57;7.70;;;3.90;;
52668;SDS011;59898;52.786;6.892;2022-07-04T09:00:36;12.40;;;6.28;;
52668;SDS011;59898;52.786;6.892;2022-07-04T09:03:58;10.30;;;5.60;;
52668;SDS011;59898;52.786;6.892;2022-07-04T09:07:20;8.57;;;4.43;;
52668;SDS011;59898;52.786;6.892;2022-07-04T09:10:41;9.73;;;4.30;;
52668;SDS011;59898;52.786;6.892;2022-07-04T09:14:02;8.98;;;4.38;;
52668;SDS011;59898;52.786;6.892;2022-07-04T09:17:23;6.50;;;4.20;;
52668;SDS011;59898;52.786;6.892;2022-07-04T09:20:43;6.28;;;4.20;;
52668;SDS011;59898;52.786;6.892;2022-07-04T09:24:04;8.30;;;3.38;;
52668;SDS011;59898;52.786;6.892;2022-07-04T09:27:29;9.63;;;4.15;;
52668;SDS011;59898;52.786;6.892;2022-07-04T09:30:51;7.40;;;3.97;;
52668;SDS011;59898;52.786;6.892;2022-07-04T09:34:12;9.00;;;3.88;;
52668;SDS011;59898;52.786;6.892;2022-07-04T09:37:33;9.80;;;4.57;;
52668;SDS011;59898;52.786;6.892;2022-07-04T09:44:45;7.80;;;4.05;;
52668;SDS011;59898;52.786;6.892;2022-07-04T09:48:09;8.80;;;3.92;;
52668;SDS011;59898;52.786;6.892;2022-07-04T09:54:57;5.55;;;2.80;;
52668;SDS011;59898;52.786;6.892;2022-07-04T09:58:25;6.00;;;2.75;;
52668;SDS011;59898;52.786;6.892;2022-07-04T10:01:46;4.85;;;2.58;;
52668;SDS011;59898;52.786;6.892;2022-07-04T10:05:07;8.45;;;2.72;;
52668;SDS011;59898;52.786;6.892;2022-07-04T10:08:28;3.85;;;2.60;;
52668;SDS011;59898;52.786;6.892;2022-07-04T10:11:49;7.22;;;4.03;;
52668;SDS011;59898;52.786;6.892;2022-07-04T10:15:09;6.22;;;2.63;;
52668;SDS011;59898;52.786;6.892;2022-07-04T10:18:30;8.02;;;2.75;;
52668;SDS011;59898;52.786;6.892;2022-07-04T10:21:51;5.47;;;2.50;;
52668;SDS011;59898;52.786;6.892;2022-07-04T10:25:12;5.03;;;2.63;;
52668;SDS011;59898;52.786;6.892;2022-07-04T10:28:33;5.78;;;2.83;;
52668;SDS011;59898;52.786;6.892;2022-07-04T10:31:54;3.55;;;2.22;;
52668;SDS011;59898;52.786;6.892;2022-07-04T10:35:15;7.10;;;2.53;;
52668;SDS011;59898;52.786;6.892;2022-07-04T10:42:23;6.03;;;2.60;;
52668;SDS011;59898;52.786;6.892;2022-07-04T10:45:44;5.10;;;1.98;;
52668;SDS011;59898;52.786;6.892;2022-07-04T10:52:34;4.72;;;2.53;;
52668;SDS011;59898;52.786;6.892;2022-07-04T11:03:17;3.95;;;2.20;;
52668;SDS011;59898;52.786;6.892;2022-07-04T11:13:41;8.65;;;3.53;;
52668;SDS011;59898;52.786;6.892;2022-07-04T11:17:03;3.42;;;2.13;;
52668;SDS011;59898;52.786;6.892;2022-07-04T11:20:26;3.55;;;2.13;;
52668;SDS011;59898;52.786;6.892;2022-07-04T11:23:48;4.00;;;2.03;;
52668;SDS011;59898;52.786;6.892;2022-07-04T11:27:10;5.45;;;2.38;;
52668;SDS011;59898;52.786;6.892;2022-07-04T11:30:30;6.55;;;2.50;;
52668;SDS011;59898;52.786;6.892;2022-07-04T11:33:53;3.67;;;2.00;;
52668;SDS011;59898;52.786;6.892;2022-07-04T11:37:14;5.53;;;2.13;;
52668;SDS011;59898;52.786;6.892;2022-07-04T11:40:44;3.83;;;2.28;;
52668;SDS011;59898;52.786;6.892;2022-07-04T11:44:41;3.80;;;1.92;;
52668;SDS011;59898;52.786;6.892;2022-07-04T11:48:21;3.72;;;2.10;;
52668;SDS011;59898;52.786;6.892;2022-07-04T11:51:46;4.80;;;2.40;;
52668;SDS011;59898;52.786;6.892;2022-07-04T11:55:11;3.03;;;2.00;;
52668;SDS011;59898;52.786;6.892;2022-07-04T11:58:39;4.50;;;2.30;;
52668;SDS011;59898;52.786;6.892;2022-07-04T12:02:13;3.72;;;2.60;;
52668;SDS011;59898;52.786;6.892;2022-07-04T12:05:34;5.47;;;2.28;;
52668;SDS011;59898;52.786;6.892;2022-07-04T12:08:59;4.63;;;2.70;;
52668;SDS011;59898;52.786;6.892;2022-07-04T12:12:20;5.50;;;3.05;;
52668;SDS011;59898;52.786;6.892;2022-07-04T12:15:42;7.50;;;3.20;;
52668;SDS011;59898;52.786;6.892;2022-07-04T12:19:08;2.80;;;2.33;;
52668;SDS011;59898;52.786;6.892;2022-07-04T12:22:40;3.13;;;2.45;;
52668;SDS011;59898;52.786;6.892;2022-07-04T12:26:02;3.63;;;2.00;;
52668;SDS011;59898;52.786;6.892;2022-07-04T12:29:24;2.53;;;2.00;;
52668;SDS011;59898;52.786;6.892;2022-07-04T12:32:48;4.82;;;2.15;;
52668;SDS011;59898;52.786;6.892;2022-07-04T12:36:11;4.30;;;2.20;;
52668;SDS011;59898;52.786;6.892;2022-07-04T12:39:36;3.75;;;2.00;;
52668;SDS011;59898;52.786;6.892;2022-07-04T12:42:59;3.50;;;2.03;;
52668;SDS011;59898;52.786;6.892;2022-07-04T12:49:45;3.45;;;2.22;;
52668;SDS011;59898;52.786;6.892;2022-07-04T12:53:06;3.60;;;2.25;;
52668;SDS011;59898;52.786;6.892;2022-07-04T12:56:31;5.22;;;2.05;;
52668;SDS011;59898;52.786;6.892;2022-07-04T12:59:53;4.63;;;2.50;;
52668;SDS011;59898;52.786;6.892;2022-07-04T13:03:14;3.90;;;2.13;;
52668;SDS011;59898;52.786;6.892;2022-07-04T13:06:35;2.47;;;2.20;;
52668;SDS011;59898;52.786;6.892;2022-07-04T13:09:56;7.93;;;2.20;;
52668;SDS011;59898;52.786;6.892;2022-07-04T13:13:17;5.20;;;2.30;;
52668;SDS011;59898;52.786;6.892;2022-07-04T13:16:38;2.97;;;2.00;;
52668;SDS011;59898;52.786;6.892;2022-07-04T13:19:58;3.53;;;2.13;;
52668;SDS011;59898;52.786;6.892;2022-07-04T13:23:19;5.88;;;2.65;;
52668;SDS011;59898;52.786;6.892;2022-07-04T13:26:40;5.05;;;2.15;;
52668;SDS011;59898;52.786;6.892;2022-07-04T13:30:02;4.30;;;2.05;;
52668;SDS011;59898;52.786;6.892;2022-07-04T13:33:23;4.07;;;2.17;;
52668;SDS011;59898;52.786;6.892;2022-07-04T13:36:44;2.63;;;2.05;;
52668;SDS011;59898;52.786;6.892;2022-07-04T13:40:06;3.80;;;1.95;;
52668;SDS011;59898;52.786;6.892;2022-07-04T13:43:28;4.05;;;2.00;;
52668;SDS011;59898;52.786;6.892;2022-07-04T13:46:49;4.70;;;1.98;;
52668;SDS011;59898;52.786;6.892;2022-07-04T13:50:09;5.03;;;2.10;;
52668;SDS011;59898;52.786;6.892;2022-07-04T13:53:30;3.58;;;2.33;;
52668;SDS011;59898;52.786;6.892;2022-07-04T13:56:53;3.65;;;1.88;;
52668;SDS011;59898;52.786;6.892;2022-07-04T14:00:14;5.40;;;1.60;;
52668;SDS011;59898;52.786;6.892;2022-07-04T14:03:35;7.15;;;2.58;;
52668;SDS011;59898;52.786;6.892;2022-07-04T14:06:55;5.88;;;1.92;;
52668;SDS011;59898;52.786;6.892;2022-07-04T14:10:16;3.28;;;2.00;;
52668;SDS011;59898;52.786;6.892;2022-07-04T14:13:37;3.95;;;1.83;;
52668;SDS011;59898;52.786;6.892;2022-07-04T14:16:59;2.63;;;1.65;;
52668;SDS011;59898;52.786;6.892;2022-07-04T14:20:20;2.00;;;1.70;;
52668;SDS011;59898;52.786;6.892;2022-07-04T14:23:41;2.75;;;2.10;;
52668;SDS011;59898;52.786;6.892;2022-07-04T14:27:01;3.85;;;2.15;;
52668;SDS011;59898;52.786;6.892;2022-07-04T14:30:22;2.20;;;1.70;;
52668;SDS011;59898;52.786;6.892;2022-07-04T14:33:43;2.45;;;1.73;;
52668;SDS011;59898;52.786;6.892;2022-07-04T14:37:04;28.55;;;3.58;;
52668;SDS011;59898;52.786;6.892;2022-07-04T14:40:24;2.65;;;1.80;;
52668;SDS011;59898;52.786;6.892;2022-07-04T14:43:45;3.08;;;1.75;;
52668;SDS011;59898;52.786;6.892;2022-07-04T14:47:06;5.70;;;2.30;;
52668;SDS011;59898;52.786;6.892;2022-07-04T14:50:27;3.03;;;1.80;;
52668;SDS011;59898;52.786;6.892;2022-07-04T14:53:48;2.95;;;1.88;;
52668;SDS011;59898;52.786;6.892;2022-07-04T14:57:09;2.15;;;1.80;;
52668;SDS011;59898;52.786;6.892;2022-07-04T15:00:30;4.22;;;2.10;;
52668;SDS011;59898;52.786;6.892;2022-07-04T15:03:50;2.25;;;1.70;;
52668;SDS011;59898;52.786;6.892;2022-07-04T15:07:11;3.63;;;1.70;;
52668;SDS011;59898;52.786;6.892;2022-07-04T15:10:32;3.80;;;1.77;;
52668;SDS011;59898;52.786;6.892;2022-07-04T15:13:53;2.47;;;1.52;;
52668;SDS011;59898;52.786;6.892;2022-07-04T15:17:13;2.67;;;1.60;;
52668;SDS011;59898;52.786;6.892;2022-07-04T15:20:35;3.27;;;1.97;;
52668;SDS011;59898;52.786;6.892;2022-07-04T15:24:15;1.98;;;1.73;;
52668;SDS011;59898;52.786;6.892;2022-07-04T15:27:37;2.03;;;1.50;;
52668;SDS011;59898;52.786;6.892;2022-07-04T15:30:57;3.38;;;1.75;;
52668;SDS011;59898;52.786;6.892;2022-07-04T15:37:41;1.92;;;1.55;;
52668;SDS011;59898;52.786;6.892;2022-07-04T15:41:01;2.53;;;1.52;;
52668;SDS011;59898;52.786;6.892;2022-07-04T15:44:22;3.53;;;1.63;;
52668;SDS011;59898;52.786;6.892;2022-07-04T15:47:43;2.78;;;1.80;;
52668;SDS011;59898;52.786;6.892;2022-07-04T15:51:04;3.85;;;1.60;;
52668;SDS011;59898;52.786;6.892;2022-07-04T15:54:24;2.88;;;1.67;;
52668;SDS011;59898;52.786;6.892;2022-07-04T15:57:46;2.20;;;1.60;;
52668;SDS011;59898;52.786;6.892;2022-07-04T16:01:07;3.10;;;1.80;;
52668;SDS011;59898;52.786;6.892;2022-07-04T16:04:27;2.40;;;1.70;;
52668;SDS011;59898;52.786;6.892;2022-07-04T16:07:48;3.47;;;1.70;;
52668;SDS011;59898;52.786;6.892;2022-07-04T16:11:09;8.88;;;7.15;;
52668;SDS011;59898;52.786;6.892;2022-07-04T16:14:30;2.42;;;1.70;;
52668;SDS011;59898;52.786;6.892;2022-07-04T16:17:50;1.85;;;1.48;;
52668;SDS011;59898;52.786;6.892;2022-07-04T16:21:11;1.98;;;1.70;;
52668;SDS011;59898;52.786;6.892;2022-07-04T16:24:32;2.03;;;1.50;;
52668;SDS011;59898;52.786;6.892;2022-07-04T16:27:52;2.35;;;1.63;;
52668;SDS011;59898;52.786;6.892;2022-07-04T16:31:13;2.67;;;1.70;;
52668;SDS011;59898;52.786;6.892;2022-07-04T16:34:34;2.40;;;1.70;;
52668;SDS011;59898;52.786;6.892;2022-07-04T16:37:54;2.13;;;1.73;;
52668;SDS011;59898;52.786;6.892;2022-07-04T16:41:15;1.95;;;1.60;;
52668;SDS011;59898;52.786;6.892;2022-07-04T16:44:36;4.35;;;1.92;;
52668;SDS011;59898;52.786;6.892;2022-07-04T16:47:57;2.53;;;1.50;;
52668;SDS011;59898;52.786;6.892;2022-07-04T16:51:17;2.58;;;1.60;;
52668;SDS011;59898;52.786;6.892;2022-07-04T16:54:38;4.72;;;2.35;;
52668;SDS011;59898;52.786;6.892;2022-07-04T16:57:59;2.97;;;1.60;;
52668;SDS011;59898;52.786;6.892;2022-07-04T17:01:20;2.40;;;1.45;;
52668;SDS011;59898;52.786;6.892;2022-07-04T17:04:41;3.60;;;2.28;;
52668;SDS011;59898;52.786;6.892;2022-07-04T17:08:02;6.50;;;2.35;;
52668;SDS011;59898;52.786;6.892;2022-07-04T17:11:23;6.15;;;1.65;;
52668;SDS011;59898;52.786;6.892;2022-07-04T17:14:43;1.98;;;1.63;;
52668;SDS011;59898;52.786;6.892;2022-07-04T17:18:05;3.25;;;1.83;;
52668;SDS011;59898;52.786;6.892;2022-07-04T17:21:26;2.53;;;1.55;;
52668;SDS011;59898;52.786;6.892;2022-07-04T17:24:47;4.22;;;1.77;;
52668;SDS011;59898;52.786;6.892;2022-07-04T17:28:08;3.03;;;1.95;;
52668;SDS011;59898;52.786;6.892;2022-07-04T17:31:29;2.38;;;1.70;;
52668;SDS011;59898;52.786;6.892;2022-07-04T17:34:50;2.58;;;1.70;;
52668;SDS011;59898;52.786;6.892;2022-07-04T17:38:10;4.38;;;1.70;;
52668;SDS011;59898;52.786;6.892;2022-07-04T17:41:31;3.20;;;1.75;;
52668;SDS011;59898;52.786;6.892;2022-07-04T17:45:03;2.22;;;1.67;;
52668;SDS011;59898;52.786;6.892;2022-07-04T17:48:24;2.35;;;1.90;;
52668;SDS011;59898;52.786;6.892;2022-07-04T17:51:44;5.35;;;2.75;;
52668;SDS011;59898;52.786;6.892;2022-07-04T17:55:06;4.55;;;2.53;;
52668;SDS011;59898;52.786;6.892;2022-07-04T17:58:27;1.85;;;1.60;;
52668;SDS011;59898;52.786;6.892;2022-07-04T18:01:48;2.35;;;1.70;;
52668;SDS011;59898;52.786;6.892;2022-07-04T18:05:08;3.33;;;1.90;;
52668;SDS011;59898;52.786;6.892;2022-07-04T18:08:29;3.63;;;1.88;;
52668;SDS011;59898;52.786;6.892;2022-07-04T18:11:50;2.90;;;2.17;;
52668;SDS011;59898;52.786;6.892;2022-07-04T18:15:10;3.42;;;1.70;;
52668;SDS011;59898;52.786;6.892;2022-07-04T18:18:31;4.65;;;1.50;;
52668;SDS011;59898;52.786;6.892;2022-07-04T18:21:52;4.13;;;2.00;;
52668;SDS011;59898;52.786;6.892;2022-07-04T18:25:13;7.68;;;2.45;;
52668;SDS011;59898;52.786;6.892;2022-07-04T18:28:33;4.00;;;1.85;;
52668;SDS011;59898;52.786;6.892;2022-07-04T18:31:54;3.60;;;1.35;;
52668;SDS011;59898;52.786;6.892;2022-07-04T18:35:16;2.67;;;1.70;;
52668;SDS011;59898;52.786;6.892;2022-07-04T18:38:37;2.83;;;1.77;;
52668;SDS011;59898;52.786;6.892;2022-07-04T18:41:58;3.72;;;1.70;;
52668;SDS011;59898;52.786;6.892;2022-07-04T18:45:37;3.35;;;1.80;;
52668;SDS011;59898;52.786;6.892;2022-07-04T18:48:59;5.25;;;2.10;;
52668;SDS011;59898;52.786;6.892;2022-07-04T18:52:20;17.88;;;13.80;;
52668;SDS011;59898;52.786;6.892;2022-07-04T18:55:40;4.80;;;3.40;;
52668;SDS011;59898;52.786;6.892;2022-07-04T18:59:01;4.13;;;2.95;;
52668;SDS011;59898;52.786;6.892;2022-07-04T19:02:22;5.18;;;2.20;;
52668;SDS011;59898;52.786;6.892;2022-07-04T19:05:43;3.60;;;2.08;;
52668;SDS011;59898;52.786;6.892;2022-07-04T19:09:03;2.63;;;1.73;;
52668;SDS011;59898;52.786;6.892;2022-07-04T19:12:24;3.17;;;1.90;;
52668;SDS011;59898;52.786;6.892;2022-07-04T19:15:47;2.33;;;1.83;;
52668;SDS011;59898;52.786;6.892;2022-07-04T19:19:08;7.93;;;3.03;;
52668;SDS011;59898;52.786;6.892;2022-07-04T19:22:28;2.95;;;2.10;;
52668;SDS011;59898;52.786;6.892;2022-07-04T19:25:49;3.22;;;2.00;;
52668;SDS011;59898;52.786;6.892;2022-07-04T19:29:10;5.18;;;2.38;;
52668;SDS011;59898;52.786;6.892;2022-07-04T19:32:32;5.35;;;2.63;;
52668;SDS011;59898;52.786;6.892;2022-07-04T19:35:56;4.25;;;2.20;;
52668;SDS011;59898;52.786;6.892;2022-07-04T19:39:17;2.97;;;2.10;;
52668;SDS011;59898;52.786;6.892;2022-07-04T19:42:37;2.10;;;1.73;;
52668;SDS011;59898;52.786;6.892;2022-07-04T19:45:59;3.92;;;2.25;;
52668;SDS011;59898;52.786;6.892;2022-07-04T19:49:19;2.70;;;1.95;;
52668;SDS011;59898;52.786;6.892;2022-07-04T19:52:43;3.95;;;1.85;;
52668;SDS011;59898;52.786;6.892;2022-07-04T19:56:03;2.70;;;2.00;;
52668;SDS011;59898;52.786;6.892;2022-07-04T19:59:25;4.97;;;2.10;;
52668;SDS011;59898;52.786;6.892;2022-07-04T20:02:45;4.95;;;2.20;;
52668;SDS011;59898;52.786;6.892;2022-07-04T20:06:06;8.77;;;6.70;;
52668;SDS011;59898;52.786;6.892;2022-07-04T20:09:27;16.35;;;12.02;;
52668;SDS011;59898;52.786;6.892;2022-07-04T20:12:48;3.03;;;2.25;;
52668;SDS011;59898;52.786;6.892;2022-07-04T20:16:09;6.07;;;2.00;;
52668;SDS011;59898;52.786;6.892;2022-07-04T20:19:30;1.95;;;1.60;;
52668;SDS011;59898;52.786;6.892;2022-07-04T20:22:51;7.15;;;2.30;;
52668;SDS011;59898;52.786;6.892;2022-07-04T20:26:12;2.30;;;1.83;;
52668;SDS011;59898;52.786;6.892;2022-07-04T20:29:32;3.80;;;2.10;;
52668;SDS011;59898;52.786;6.892;2022-07-04T20:32:53;2.55;;;1.70;;
52668;SDS011;59898;52.786;6.892;2022-07-04T20:36:14;4.90;;;3.28;;
52668;SDS011;59898;52.786;6.892;2022-07-04T20:39:35;4.00;;;1.80;;
52668;SDS011;59898;52.786;6.892;2022-07-04T20:42:59;2.00;;;1.63;;
52668;SDS011;59898;52.786;6.892;2022-07-04T20:46:20;3.38;;;1.95;;
52668;SDS011;59898;52.786;6.892;2022-07-04T20:49:43;3.30;;;1.70;;